Time;durP1;ratioP1;P1;durP2;ratioP2;P2;SDS_P1;SDS_P2;PMS_P1;PMS_P2;Temp;Humidity;BMP_temperature;BMP_pressure;BME280_temperature;BME280_humidity;BME280_pressure;Samples;Min_cycle;Max_cycle;Signal;HPM_P1;HPM_P2
2023/01/30 00:00:09;;;;;;;29.35;16.90;;;;;;;1.85;100.00;101156.38;692262;28;1297;-61
2023/01/30 00:00:30;;;;;;;28.95;16.83;;;;;;;1.96;100.00;101160.25;694243;28;1293;-59
2023/01/30 00:00:52;;;;;;;28.38;16.60;;;;;;;1.96;100.00;101152.53;693365;28;4281;-60
2023/01/30 00:01:16;;;;;;;29.42;16.17;;;;;;;1.99;100.00;101154.34;694358;28;1555;-61
2023/01/30 00:01:37;;;;;;;25.83;14.35;;;;;;;1.94;100.00;101163.59;694525;28;1222;-61
2023/01/30 00:01:58;;;;;;;27.15;15.60;;;;;;;1.89;100.00;101160.84;693240;28;1357;-61
2023/01/30 00:02:18;;;;;;;28.33;16.27;;;;;;;1.87;100.00;101162.50;691856;28;1229;-62
2023/01/30 00:02:38;;;;;;;29.83;16.40;;;;;;;1.85;100.00;101156.38;693679;28;1096;-60
2023/01/30 00:02:59;;;;;;;29.77;16.60;;;;;;;1.87;100.00;101165.09;694590;28;1292;-61
2023/01/30 00:03:21;;;;;;;28.58;17.05;;;;;;;1.83;100.00;101153.75;695490;28;1249;-60
2023/01/30 00:03:41;;;;;;;29.88;17.25;;;;;;;1.84;100.00;101159.78;693932;28;4423;-60
2023/01/30 00:04:02;;;;;;;26.50;16.00;;;;;;;1.81;100.00;101155.38;694995;28;1163;-60
2023/01/30 00:04:22;;;;;;;28.45;16.58;;;;;;;1.93;100.00;101149.81;696455;28;983;-60
2023/01/30 00:04:42;;;;;;;29.50;17.03;;;;;;;1.92;100.00;101150.63;698105;28;1238;-61
2023/01/30 00:05:03;;;;;;;26.13;15.57;;;;;;;1.89;100.00;101147.09;697392;28;1298;-60
2023/01/30 00:05:24;;;;;;;26.90;15.63;;;;;;;1.87;100.00;101140.16;696231;28;1381;-60
2023/01/30 00:05:44;;;;;;;28.00;16.02;;;;;;;1.87;100.00;101144.44;691068;28;2177;-61
2023/01/30 00:06:04;;;;;;;27.83;15.97;;;;;;;1.90;100.00;101141.09;694129;28;1443;-60
2023/01/30 00:06:25;;;;;;;27.35;15.60;;;;;;;1.95;100.00;101143.03;693660;28;1388;-60
2023/01/30 00:06:46;;;;;;;24.50;15.35;;;;;;;2.13;100.00;101134.22;693460;28;4460;-61
2023/01/30 00:07:06;;;;;;;25.77;15.17;;;;;;;2.09;100.00;101134.94;693816;28;1310;-60
2023/01/30 00:07:27;;;;;;;26.75;15.73;;;;;;;2.09;100.00;101132.34;690562;28;1338;-61
2023/01/30 00:07:47;;;;;;;26.43;14.63;;;;;;;2.01;100.00;101132.94;693906;28;1294;-61
2023/01/30 00:08:07;;;;;;;26.70;15.27;;;;;;;2.05;100.00;101128.78;694382;28;1903;-60
2023/01/30 00:08:28;;;;;;;26.80;16.30;;;;;;;2.14;100.00;101117.94;694059;28;1337;-60
2023/01/30 00:08:48;;;;;;;26.42;15.70;;;;;;;2.13;100.00;101123.91;695128;28;1267;-60
2023/01/30 00:09:13;;;;;;;26.03;15.43;;;;;;;2.06;100.00;101121.94;693865;28;1337;-62
2023/01/30 00:09:33;;;;;;;25.10;15.52;;;;;;;2.07;100.00;101121.13;696642;28;1183;-61
2023/01/30 00:09:54;;;;;;;25.95;15.90;;;;;;;2.09;100.00;101111.72;696222;28;4532;-60
2023/01/30 00:10:15;;;;;;;27.53;15.93;;;;;;;2.20;100.00;101112.97;696475;28;1166;-59
2023/01/30 00:10:35;;;;;;;26.67;15.57;;;;;;;2.21;100.00;101105.28;697691;28;1316;-60
2023/01/30 00:10:55;;;;;;;26.97;15.53;;;;;;;2.14;100.00;101110.19;696495;28;1293;-60
2023/01/30 00:11:18;;;;;;;26.23;15.55;;;;;;;2.11;100.00;101112.66;697604;28;1375;-60
2023/01/30 00:11:38;;;;;;;24.90;14.85;;;;;;;2.17;100.00;101106.03;696810;28;1318;-59
2023/01/30 00:11:59;;;;;;;25.60;14.63;;;;;;;2.13;100.00;101105.84;697466;28;1305;-61
2023/01/30 00:12:19;;;;;;;26.50;15.27;;;;;;;2.08;100.00;101107.38;696204;28;1285;-61
2023/01/30 00:12:39;;;;;;;24.42;14.25;;;;;;;2.04;100.00;101102.09;695460;28;4342;-60
2023/01/30 00:13:00;;;;;;;26.27;15.30;;;;;;;2.02;100.00;101108.03;697342;28;1074;-60
2023/01/30 00:13:20;;;;;;;27.10;16.63;;;;;;;2.07;100.00;101115.97;697485;28;1214;-61
2023/01/30 00:13:42;;;;;;;27.30;16.40;;;;;;;1.99;100.00;101108.78;693848;28;1321;-60
2023/01/30 00:14:02;;;;;;;29.85;16.58;;;;;;;2.08;100.00;101102.22;694696;28;1333;-61
2023/01/30 00:14:22;;;;;;;25.77;15.50;;;;;;;2.12;100.00;101109.25;693503;28;1301;-59
2023/01/30 00:14:43;;;;;;;24.80;15.00;;;;;;;2.09;100.00;101104.88;690968;28;1231;-61
2023/01/30 00:15:04;;;;;;;25.53;15.47;;;;;;;2.14;100.00;101103.31;691131;28;1212;-59
2023/01/30 00:15:24;;;;;;;27.08;15.88;;;;;;;2.09;100.00;101114.28;691740;28;1278;-60
2023/01/30 00:15:46;;;;;;;26.73;15.50;;;;;;;2.06;100.00;101111.59;691877;28;4383;-61
2023/01/30 00:16:08;;;;;;;25.63;15.18;;;;;;;2.12;100.00;101107.56;691403;28;1345;-60
2023/01/30 00:16:29;;;;;;;25.45;14.93;;;;;;;2.11;100.00;101118.69;690823;28;1337;-61
2023/01/30 00:16:49;;;;;;;26.40;15.60;;;;;;;2.08;100.00;101112.53;694137;28;1285;-62
2023/01/30 00:17:09;;;;;;;24.52;15.00;;;;;;;2.06;100.00;101121.94;694168;28;1372;-60
2023/01/30 00:17:30;;;;;;;25.67;15.37;;;;;;;2.07;100.00;101110.78;694913;28;1429;-61
2023/01/30 00:17:50;;;;;;;26.30;15.53;;;;;;;2.01;100.00;101112.31;697001;28;1516;-61
2023/01/30 00:18:10;;;;;;;26.45;15.80;;;;;;;2.09;100.00;101104.88;697037;28;1227;-59
2023/01/30 00:18:31;;;;;;;25.20;14.40;;;;;;;2.03;100.00;101117.53;696149;28;1645;-62
2023/01/30 00:18:51;;;;;;;24.40;14.77;;;;;;;2.08;100.00;101108.28;695461;28;4302;-62
2023/01/30 00:19:12;;;;;;;25.42;14.95;;;;;;;2.04;100.00;101111.56;695656;28;1424;-59
2023/01/30 00:19:32;;;;;;;24.93;14.80;;;;;;;2.11;100.00;101116.13;697866;28;1396;-60
2023/01/30 00:19:53;;;;;;;26.67;15.20;;;;;;;2.14;100.00;101123.09;694993;28;1410;-60
2023/01/30 00:20:13;;;;;;;27.53;15.10;;;;;;;2.13;100.00;101121.31;692845;28;4267;-61
2023/01/30 00:20:35;;;;;;;26.57;15.37;;;;;;;2.06;100.00;101125.38;694452;28;1448;-61
2023/01/30 00:20:57;;;;;;;25.48;15.57;;;;;;;2.09;100.00;101116.88;693520;28;1246;-62
2023/01/30 00:21:17;;;;;;;26.15;15.13;;;;;;;2.13;100.00;101126.47;694631;28;1293;-59
2023/01/30 00:21:38;;;;;;;26.85;15.30;;;;;;;2.07;100.00;101131.44;694955;28;1294;-63
2023/01/30 00:21:58;;;;;;;25.70;14.90;;;;;;;2.09;100.00;101140.09;693915;28;4315;-60
2023/01/30 00:22:18;;;;;;;25.25;14.73;;;;;;;2.13;100.00;101131.66;695146;28;1218;-60
2023/01/30 00:22:39;;;;;;;27.77;15.80;;;;;;;2.08;100.00;101138.31;694971;28;1234;-62
2023/01/30 00:22:59;;;;;;;28.30;16.13;;;;;;;2.06;100.00;101134.81;694319;28;1415;-60
2023/01/30 00:23:19;;;;;;;27.20;15.48;;;;;;;2.06;100.00;101133.09;694836;28;1413;-59
2023/01/30 00:23:40;;;;;;;25.97;15.50;;;;;;;2.02;100.00;101138.97;695220;28;1226;-60
2023/01/30 00:24:01;;;;;;;24.88;14.95;;;;;;;2.00;100.00;101138.91;695345;28;1243;-60
2023/01/30 00:24:21;;;;;;;26.97;15.93;;;;;;;2.03;100.00;101135.59;697006;28;1544;-61
2023/01/30 00:24:42;;;;;;;27.45;16.38;;;;;;;2.04;100.00;101137.34;692945;28;4482;-59
2023/01/30 00:25:02;;;;;;;26.53;15.40;;;;;;;2.02;100.00;101138.97;694258;28;1170;-59
2023/01/30 00:25:27;;;;;;;26.08;13.95;;;;;;;2.18;100.00;101136.16;692323;28;1451;-59
2023/01/30 00:25:47;;;;;;;24.98;14.18;;;;;;;2.09;100.00;101129.78;692242;28;1509;-61
2023/01/30 00:26:08;;;;;;;24.60;15.13;;;;;;;2.03;100.00;101128.72;692516;28;1488;-61
2023/01/30 00:26:28;;;;;;;24.00;15.73;;;;;;;2.10;100.00;101126.38;692886;28;1504;-60
2023/01/30 00:26:49;;;;;;;25.27;15.87;;;;;;;2.19;100.00;101122.44;691844;28;1561;-61
2023/01/30 00:27:09;;;;;;;26.77;15.48;;;;;;;2.20;100.00;101121.63;690162;28;1287;-60
2023/01/30 00:27:30;;;;;;;26.33;15.50;;;;;;;2.16;100.00;101124.00;691740;28;1406;-60
2023/01/30 00:27:50;;;;;;;25.17;15.47;;;;;;;2.15;100.00;101124.84;690722;28;4665;-59
2023/01/30 00:28:10;;;;;;;25.50;15.73;;;;;;;2.24;100.00;101119.16;691163;28;1911;-61
2023/01/30 00:28:31;;;;;;;26.13;15.30;;;;;;;2.26;100.00;101118.38;692592;28;1231;-60
2023/01/30 00:28:51;;;;;;;25.77;15.43;;;;;;;2.20;100.00;101118.13;692147;28;1672;-60
2023/01/30 00:29:12;;;;;;;27.83;15.70;;;;;;;2.28;100.00;101113.28;694052;28;1286;-61
2023/01/30 00:29:32;;;;;;;27.17;15.83;;;;;;;2.25;100.00;101118.34;691723;28;1625;-61
2023/01/30 00:29:55;;;;;;;25.70;15.63;;;;;;;2.25;100.00;101119.19;690110;28;1258;-60
2023/01/30 00:30:16;;;;;;;26.63;15.82;;;;;;;2.32;100.00;101120.31;691157;28;1290;-61
2023/01/30 00:30:36;;;;;;;26.23;14.83;;;;;;;2.26;100.00;101118.38;689551;28;1239;-60
2023/01/30 00:30:57;;;;;;;24.42;14.32;;;;;;;2.26;100.00;101115.81;689128;28;5187;-60
2023/01/30 00:31:17;;;;;;;24.60;14.90;;;;;;;2.19;100.00;101121.56;689790;28;1238;-60
2023/01/30 00:31:38;;;;;;;25.03;15.23;;;;;;;2.23;100.00;101118.28;689116;28;1516;-62
2023/01/30 00:31:58;;;;;;;25.70;15.20;;;;;;;2.27;100.00;101119.25;689868;28;1156;-61
2023/01/30 00:32:18;;;;;;;26.87;15.47;;;;;;;2.25;100.00;101111.47;688961;28;1671;-60
2023/01/30 00:32:39;;;;;;;26.50;15.17;;;;;;;2.20;100.00;101112.97;692027;28;1195;-62
2023/01/30 00:32:59;;;;;;;25.83;15.32;;;;;;;2.18;100.00;101114.66;690392;28;1305;-60
2023/01/30 00:33:21;;;;;;;25.33;15.50;;;;;;;2.14;100.00;101117.94;688170;28;1420;-61
2023/01/30 00:33:41;;;;;;;25.85;15.63;;;;;;;2.12;100.00;101110.16;690775;28;4334;-60
2023/01/30 00:34:01;;;;;;;26.60;15.30;;;;;;;2.12;100.00;101104.97;688210;28;1284;-61
2023/01/30 00:34:22;;;;;;;24.83;15.05;;;;;;;2.14;100.00;101105.03;689403;28;1243;-60
2023/01/30 00:34:42;;;;;;;25.47;15.13;;;;;;;2.17;100.00;101098.31;689215;28;1224;-61
2023/01/30 00:35:03;;;;;;;24.63;15.67;;;;;;;2.15;100.00;101104.22;689841;28;1601;-60
2023/01/30 00:35:27;;;;;;;25.98;15.90;;;;;;;2.12;100.00;101111.81;692109;28;1274;-60
2023/01/30 00:35:49;;;;;;;25.67;16.10;;;;;;;2.22;100.00;101101.91;687771;28;1212;-61
2023/01/30 00:36:10;;;;;;;25.38;15.80;;;;;;;2.16;100.00;101100.78;689823;28;1231;-59
2023/01/30 00:36:31;;;;;;;25.20;15.65;;;;;;;2.16;100.00;101105.94;694767;28;1373;-60
2023/01/30 00:36:52;;;;;;;25.02;15.55;;;;;;;2.15;100.00;101111.97;694091;28;4506;-60
2023/01/30 00:37:13;;;;;;;25.13;15.63;;;;;;;2.21;100.00;101112.16;694628;28;1615;-62
2023/01/30 00:37:33;;;;;;;25.00;15.35;;;;;;;2.19;100.00;101104.38;694726;28;1333;-59
2023/01/30 00:37:56;;;;;;;24.27;15.17;;;;;;;2.17;100.00;101098.31;694589;28;1329;-60
2023/01/30 00:38:16;;;;;;;25.45;15.60;;;;;;;2.20;100.00;101100.09;694819;28;1207;-60
2023/01/30 00:38:37;;;;;;;27.55;16.35;;;;;;;2.21;100.00;101105.28;694697;28;1087;-60
2023/01/30 00:39:00;;;;;;;26.95;16.30;;;;;;;2.29;100.00;101103.00;695117;28;5337;-61
2023/01/30 00:39:20;;;;;;;26.27;16.23;;;;;;;2.24;100.00;101099.38;695658;28;777;-60
2023/01/30 00:39:41;;;;;;;26.45;15.55;;;;;;;2.23;100.00;101097.63;696873;28;4589;-60
2023/01/30 00:40:01;;;;;;;26.80;15.50;;;;;;;2.21;100.00;101099.28;694493;28;1241;-59
2023/01/30 00:40:22;;;;;;;27.02;16.02;;;;;;;2.18;100.00;101104.31;694750;28;1341;-60
2023/01/30 00:40:42;;;;;;;25.07;14.80;;;;;;;2.31;100.00;101098.78;694740;28;1365;-60
2023/01/30 00:41:03;;;;;;;25.67;14.85;;;;;;;2.36;100.00;101098.94;694524;28;1167;-60
2023/01/30 00:47:03;;;;;;;27.40;16.10;;;;;;;2.30;100.00;101094.44;694917;28;1258;-60
2023/01/30 00:47:20;;;;;;;24.65;14.75;;;;;;;2.30;100.00;101086.72;693383;28;1491;-61
2023/01/30 00:47:40;;;;;;;24.50;15.25;;;;;;;2.26;100.00;101087.44;694105;28;1160;-61
2023/01/30 00:48:01;;;;;;;25.67;15.93;;;;;;;2.28;100.00;101093.50;691991;28;1352;-61
2023/01/30 00:48:21;;;;;;;24.50;15.73;;;;;;;2.27;100.00;101088.28;691786;28;1906;-61
2023/01/30 00:48:43;;;;;;;25.92;15.68;;;;;;;2.28;100.00;101085.75;691645;28;4513;-60
2023/01/30 00:49:03;;;;;;;26.80;15.95;;;;;;;2.34;100.00;101090.25;692384;28;1275;-59
2023/01/30 00:49:24;;;;;;;28.50;16.13;;;;;;;2.35;100.00;101084.28;692677;28;1301;-60
2023/01/30 00:49:44;;;;;;;27.13;16.30;;;;;;;2.42;100.00;101083.66;692194;28;1321;-61
2023/01/30 00:50:05;;;;;;;25.87;15.37;;;;;;;2.41;100.00;101091.34;691956;28;1306;-62
2023/01/30 00:50:41;;;;;;;26.92;15.65;;;;;;;2.35;100.00;101090.34;689468;28;1651;-60
2023/01/30 00:51:01;;;;;;;26.10;16.15;;;;;;;2.32;100.00;101087.63;688997;28;1223;-60
2023/01/30 00:51:22;;;;;;;26.03;15.77;;;;;;;2.37;100.00;101080.94;689190;28;1469;-59
2023/01/30 00:51:42;;;;;;;24.02;15.50;;;;;;;2.35;100.00;101080.03;688562;28;4322;-59
2023/01/30 00:52:03;;;;;;;26.10;15.00;;;;;;;2.43;100.00;101082.00;688648;28;1339;-62
2023/01/30 00:52:24;;;;;;;25.98;15.43;;;;;;;2.37;100.00;101083.53;688540;28;1330;-59
2023/01/30 00:52:44;;;;;;;25.73;15.83;;;;;;;2.35;100.00;101081.69;688734;28;1316;-60
2023/01/30 00:53:05;;;;;;;26.40;16.27;;;;;;;2.29;100.00;101078.91;685408;28;1327;-61
2023/01/30 00:53:26;;;;;;;26.02;16.17;;;;;;;2.24;100.00;101076.16;687258;28;1302;-59
2023/01/30 00:53:46;;;;;;;26.77;15.47;;;;;;;2.26;100.00;101077.09;688738;28;1274;-60
2023/01/30 00:54:07;;;;;;;27.45;15.75;;;;;;;2.24;100.00;101078.75;687044;28;1317;-60
2023/01/30 00:54:28;;;;;;;27.10;15.73;;;;;;;2.33;100.00;101073.06;688309;28;1282;-60
2023/01/30 00:54:51;;;;;;;27.45;16.05;;;;;;;2.34;100.00;101075.69;691595;28;4649;-60
2023/01/30 00:55:11;;;;;;;26.38;15.07;;;;;;;2.49;100.00;101072.75;692130;28;2042;-61
2023/01/30 00:55:32;;;;;;;26.07;15.23;;;;;;;2.44;100.00;101070.81;694253;28;1251;-60
2023/01/30 00:55:53;;;;;;;26.17;15.93;;;;;;;2.42;100.00;101069.91;690740;28;1573;-60
2023/01/30 00:56:14;;;;;;;25.85;15.50;;;;;;;2.45;100.00;101072.59;688681;28;1506;-61
2023/01/30 00:56:35;;;;;;;25.45;15.13;;;;;;;2.46;100.00;101076.94;686216;28;1363;-62
2023/01/30 00:56:55;;;;;;;25.73;15.57;;;;;;;2.53;100.00;101072.03;685233;28;1319;-62
2023/01/30 00:57:18;;;;;;;26.13;15.90;;;;;;;2.59;100.00;101061.06;682744;28;1366;-61
2023/01/30 00:57:39;;;;;;;24.83;15.32;;;;;;;2.53;100.00;101071.16;684001;28;4474;-62
2023/01/30 00:57:59;;;;;;;24.43;15.37;;;;;;;2.46;100.00;101066.59;686612;28;1207;-62
2023/01/30 00:58:20;;;;;;;26.40;15.70;;;;;;;2.45;100.00;101062.25;689164;28;1247;-62
2023/01/30 00:58:41;;;;;;;26.48;15.23;;;;;;;2.53;100.00;101065.97;689375;28;1596;-61
2023/01/30 00:59:04;;;;;;;26.48;15.66;;;;;;;2.52;100.00;101061.63;690210;28;1187;-60
2023/01/30 00:59:26;;;;;;;28.37;16.53;;;;;;;2.49;100.00;101061.53;691851;28;1230;-63
2023/01/30 00:59:46;;;;;;;26.10;15.55;;;;;;;2.50;100.00;101065.88;692200;28;1298;-60
2023/01/30 01:00:08;;;;;;;25.13;14.43;;;;;;;2.45;100.00;101062.25;691789;28;1303;-62
2023/01/30 01:00:28;;;;;;;24.58;14.82;;;;;;;2.53;100.00;101055.66;692751;28;1247;-60
2023/01/30 01:00:50;;;;;;;25.83;15.77;;;;;;;2.59;100.00;101049.81;691077;28;4329;-61
2023/01/30 01:01:10;;;;;;;26.60;15.18;;;;;;;2.54;100.00;101047.09;691340;28;1322;-61
2023/01/30 01:01:31;;;;;;;25.50;15.30;;;;;;;2.56;100.00;101055.75;688141;28;1591;-60
2023/01/30 01:01:51;;;;;;;26.67;15.75;;;;;;;2.51;100.00;101041.84;683650;28;1442;-62
2023/01/30 01:02:12;;;;;;;27.13;15.63;;;;;;;2.50;100.00;101050.41;685630;28;1422;-62
2023/01/30 01:02:33;;;;;;;25.90;15.07;;;;;;;2.47;100.00;101045.16;685857;28;1425;-61
2023/01/30 01:02:53;;;;;;;25.85;14.82;;;;;;;2.61;100.00;101043.91;687925;28;999;-60
2023/01/30 01:03:13;;;;;;;24.27;14.13;;;;;;;2.50;100.00;101043.53;687507;28;1378;-62
2023/01/30 01:03:34;;;;;;;25.55;15.40;;;;;;;2.57;100.00;101042.03;689653;28;1366;-60
2023/01/30 01:03:54;;;;;;;27.10;15.85;;;;;;;2.58;100.00;101042.94;694037;28;4946;-62
2023/01/30 01:04:15;;;;;;;25.20;14.53;;;;;;;2.51;100.00;101050.44;694592;28;1147;-60
2023/01/30 01:04:42;;;;;;;24.23;14.57;;;;;;;2.51;100.00;101041.84;694799;28;1439;-61
2023/01/30 01:05:02;;;;;;;27.42;15.55;;;;;;;2.56;100.00;101045.44;694668;28;1265;-61
2023/01/30 01:05:23;;;;;;;26.35;15.55;;;;;;;2.58;100.00;101042.94;695607;28;1333;-60
2023/01/30 01:05:44;;;;;;;25.98;15.65;;;;;;;2.53;100.00;101042.75;695184;28;1025;-61
2023/01/30 01:06:07;;;;;;;26.17;15.98;;;;;;;2.48;100.00;101054.63;695504;28;1512;-61
2023/01/30 01:06:28;;;;;;;26.40;15.60;;;;;;;2.51;100.00;101044.44;695580;28;1321;-61
2023/01/30 01:06:48;;;;;;;24.10;15.02;;;;;;;2.58;100.00;101043.81;689852;28;4513;-60
2023/01/30 01:07:09;;;;;;;25.00;14.70;;;;;;;2.50;100.00;101047.81;690244;28;1496;-62
2023/01/30 01:07:30;;;;;;;26.35;15.55;;;;;;;2.47;100.00;101051.16;691368;28;1259;-60
2023/01/30 01:07:50;;;;;;;25.70;15.30;;;;;;;2.48;100.00;101036.56;688760;28;1665;-62
2023/01/30 01:08:11;;;;;;;24.40;15.33;;;;;;;2.62;100.00;101045.66;686852;28;1977;-62
2023/01/30 01:08:31;;;;;;;26.40;15.63;;;;;;;2.67;100.00;101036.38;686941;28;1434;-60
2023/01/30 01:08:52;;;;;;;26.43;15.53;;;;;;;2.69;100.00;101026.09;689387;28;1421;-60
2023/01/30 01:09:12;;;;;;;25.37;15.23;;;;;;;2.72;100.00;101031.34;688828;28;1469;-61
2023/01/30 01:09:34;;;;;;;26.58;15.55;;;;;;;2.75;100.00;101030.59;686529;28;1413;-59
2023/01/30 01:09:54;;;;;;;27.13;15.53;;;;;;;2.68;100.00;101029.50;689042;28;4357;-60
2023/01/30 01:10:15;;;;;;;26.08;15.15;;;;;;;2.71;100.00;101035.66;690467;28;1194;-61
2023/01/30 01:10:36;;;;;;;26.83;15.18;;;;;;;2.64;100.00;101043.13;693861;28;1401;-61
2023/01/30 01:10:57;;;;;;;28.02;15.43;;;;;;;2.58;100.00;101043.81;693887;28;1357;-60
2023/01/30 01:11:25;;;;;;;26.70;15.60;;;;;;;2.61;100.00;101046.47;693934;28;1202;-63
2023/01/30 01:11:45;;;;;;;25.55;15.65;;;;;;;2.58;100.00;101042.94;696652;28;1246;-60
2023/01/30 01:12:06;;;;;;;26.17;15.23;;;;;;;2.50;100.00;101035.78;695883;28;1496;-63
2023/01/30 01:12:27;;;;;;;28.63;16.45;;;;;;;2.43;100.00;101051.88;693935;28;1453;-60
2023/01/30 01:12:53;;;;;;;26.57;15.57;;;;;;;2.47;100.00;101042.56;692853;28;4486;-62
2023/01/30 01:13:13;;;;;;;26.77;16.08;;;;;;;2.53;100.00;101050.50;693563;28;1392;-61
2023/01/30 01:13:33;;;;;;;27.13;15.55;;;;;;;2.54;100.00;101045.38;691376;28;1429;-61
2023/01/30 01:13:56;;;;;;;26.67;15.70;;;;;;;2.56;100.00;101050.59;691261;28;1404;-61
2023/01/30 01:14:16;;;;;;;26.02;15.63;;;;;;;2.52;100.00;101059.06;689913;28;1594;-61
2023/01/30 01:14:36;;;;;;;27.43;16.00;;;;;;;2.66;100.00;101052.69;689186;28;1188;-60
2023/01/30 01:14:57;;;;;;;26.23;15.97;;;;;;;2.55;100.00;101043.69;688177;28;1302;-61
2023/01/30 01:15:18;;;;;;;25.13;15.10;;;;;;;2.58;100.00;101046.38;689654;28;1409;-61
2023/01/30 01:15:41;;;;;;;25.55;15.43;;;;;;;2.61;100.00;101048.19;688493;28;4414;-62
2023/01/30 01:16:02;;;;;;;26.07;15.53;;;;;;;2.69;100.00;101051.91;687131;28;1171;-60
2023/01/30 01:16:23;;;;;;;26.52;15.25;;;;;;;2.72;100.00;101041.69;689376;28;3561;-60
2023/01/30 01:16:44;;;;;;;28.08;16.25;;;;;;;2.71;100.00;101043.41;688200;28;1333;-60
2023/01/30 01:17:04;;;;;;;26.77;16.43;;;;;;;2.70;100.00;101046.78;688515;28;1148;-61
2023/01/30 01:17:25;;;;;;;25.60;15.60;;;;;;;2.74;100.00;101045.19;686873;28;1270;-62
2023/01/30 01:17:45;;;;;;;24.73;15.13;;;;;;;2.79;100.00;101040.19;689241;28;1383;-60
2023/01/30 01:18:05;;;;;;;24.92;14.93;;;;;;;2.78;100.00;101052.19;690978;28;1403;-61
2023/01/30 01:18:26;;;;;;;25.07;15.23;;;;;;;2.68;100.00;101053.59;691823;28;1239;-61
2023/01/30 01:18:46;;;;;;;25.38;15.02;;;;;;;2.66;100.00;101042.34;693283;28;4553;-59
2023/01/30 01:19:07;;;;;;;26.13;15.37;;;;;;;2.69;100.00;101049.34;693349;28;1203;-63
2023/01/30 01:19:27;;;;;;;25.45;14.98;;;;;;;2.65;100.00;101050.91;696837;28;1281;-60
2023/01/30 01:19:48;;;;;;;25.53;14.90;;;;;;;2.62;100.00;101050.81;694521;28;1337;-61
2023/01/30 01:20:09;;;;;;;25.23;15.13;;;;;;;2.68;100.00;101051.00;692032;28;1283;-61
2023/01/30 01:20:29;;;;;;;27.58;15.80;;;;;;;2.62;100.00;101047.38;691721;28;1437;-60
2023/01/30 01:20:49;;;;;;;26.13;15.40;;;;;;;2.57;100.00;101054.06;691920;28;1254;-62
2023/01/30 01:21:10;;;;;;;24.83;15.20;;;;;;;2.52;100.00;101054.78;691711;28;1325;-60
2023/01/30 01:21:30;;;;;;;26.50;15.30;;;;;;;2.66;100.00;101057.84;692561;28;1401;-60
2023/01/30 01:21:50;;;;;;;27.58;15.32;;;;;;;2.63;100.00;101050.00;694544;28;4360;-60
2023/01/30 01:22:11;;;;;;;27.53;15.63;;;;;;;2.59;100.00;101049.81;696080;28;1241;-61
2023/01/30 01:22:31;;;;;;;25.70;16.23;;;;;;;2.56;100.00;101050.59;694921;28;1313;-61
2023/01/30 01:22:53;;;;;;;26.52;16.15;;;;;;;2.50;100.00;101045.25;691873;28;1392;-61
2023/01/30 01:23:14;;;;;;;26.85;15.77;;;;;;;2.47;100.00;101055.47;691622;28;1667;-62
2023/01/30 01:23:34;;;;;;;27.15;15.77;;;;;;;2.50;100.00;101047.81;692045;28;1243;-62
2023/01/30 01:23:57;;;;;;;27.67;15.67;;;;;;;2.57;100.00;101043.75;692084;28;1199;-62
2023/01/30 01:24:17;;;;;;;24.95;15.38;;;;;;;2.54;100.00;101047.09;692684;28;1301;-62
2023/01/30 01:24:38;;;;;;;25.13;15.80;;;;;;;2.57;100.00;101044.63;694501;28;1234;-62
2023/01/30 01:24:58;;;;;;;27.38;16.13;;;;;;;2.54;100.00;101044.53;695859;28;4247;-62
2023/01/30 01:25:19;;;;;;;26.67;15.67;;;;;;;2.53;100.00;101048.81;696674;28;1555;-60
2023/01/30 01:25:39;;;;;;;27.83;15.75;;;;;;;2.60;100.00;101042.13;697153;28;1230;-62
2023/01/30 01:26:01;;;;;;;26.48;15.73;;;;;;;2.60;100.00;101044.72;692845;28;1333;-61
2023/01/30 01:26:22;;;;;;;26.98;16.08;;;;;;;2.54;100.00;101041.94;693603;28;1230;-61
2023/01/30 01:26:43;;;;;;;25.70;15.88;;;;;;;2.58;100.00;101038.63;691484;28;1585;-61
2023/01/30 01:27:04;;;;;;;26.02;15.63;;;;;;;2.51;100.00;101040.13;689069;28;2040;-61
2023/01/30 01:27:26;;;;;;;27.75;16.17;;;;;;;2.53;100.00;101037.59;688954;28;1319;-61
2023/01/30 01:27:46;;;;;;;28.70;16.70;;;;;;;2.60;100.00;101033.53;689354;28;4436;-62
2023/01/30 01:28:09;;;;;;;29.20;16.80;;;;;;;2.59;100.00;101042.97;688621;28;1914;-60
2023/01/30 01:28:30;;;;;;;27.37;15.47;;;;;;;2.59;100.00;101035.25;690350;28;1408;-64
2023/01/30 01:28:55;;;;;;;28.58;16.75;;;;;;;2.68;100.00;101043.28;692642;28;1310;-61
2023/01/30 01:29:16;;;;;;;27.58;15.68;;;;;;;2.72;100.00;101037.38;693329;28;1337;-60
2023/01/30 01:29:36;;;;;;;25.35;15.68;;;;;;;2.68;100.00;101035.53;693688;28;1308;-61
2023/01/30 01:29:56;;;;;;;27.70;16.10;;;;;;;2.66;100.00;101036.28;695149;28;1202;-61
2023/01/30 01:30:17;;;;;;;27.83;15.37;;;;;;;2.63;100.00;101036.19;694946;28;1345;-60
2023/01/30 01:30:38;;;;;;;27.83;16.27;;;;;;;2.66;100.00;101038.88;691255;28;1429;-60
2023/01/30 01:30:58;;;;;;;27.42;16.40;;;;;;;2.72;100.00;101028.78;690800;28;4488;-62
2023/01/30 01:31:22;;;;;;;27.00;15.88;;;;;;;2.78;100.00;101022.94;688676;28;1280;-61
2023/01/30 01:31:43;;;;;;;26.85;16.45;;;;;;;2.71;100.00;101021.84;688649;28;1150;-60
2023/01/30 01:32:04;;;;;;;28.88;16.20;;;;;;;2.71;100.00;101025.31;690424;28;920;-60
2023/01/30 01:32:24;;;;;;;25.67;15.37;;;;;;;2.76;100.00;101022.03;691446;28;1341;-61
2023/01/30 01:32:45;;;;;;;25.13;15.60;;;;;;;2.79;100.00;101024.69;692140;28;1408;-60
2023/01/30 01:33:05;;;;;;;25.80;15.52;;;;;;;2.82;100.00;101017.91;688766;28;1330;-60
2023/01/30 01:33:27;;;;;;;27.43;16.47;;;;;;;2.80;100.00;101021.28;688269;28;1224;-61
2023/01/30 01:33:47;;;;;;;27.35;16.63;;;;;;;2.73;100.00;101018.50;684840;28;4565;-60
2023/01/30 01:34:08;;;;;;;26.47;16.03;;;;;;;2.69;100.00;101021.78;687802;28;1266;-60
2023/01/30 01:34:28;;;;;;;27.55;15.95;;;;;;;2.65;100.00;101014.78;689514;28;1270;-61
2023/01/30 01:34:49;;;;;;;27.50;16.03;;;;;;;2.62;100.00;101022.44;689476;28;1235;-62
2023/01/30 01:35:09;;;;;;;27.23;16.02;;;;;;;2.60;100.00;101013.75;689853;28;1011;-60
2023/01/30 01:35:30;;;;;;;27.65;16.00;;;;;;;2.58;100.00;101012.81;693358;28;1615;-61
2023/01/30 01:35:55;;;;;;;27.40;16.20;;;;;;;2.62;100.00;101016.41;693495;28;1250;-60
2023/01/30 01:36:16;;;;;;;27.80;16.08;;;;;;;2.59;100.00;101014.59;690330;28;1565;-61
2023/01/30 01:36:36;;;;;;;28.77;16.87;;;;;;;2.58;100.00;101011.97;691157;28;1168;-61
2023/01/30 01:36:57;;;;;;;27.85;16.67;;;;;;;2.66;100.00;101013.97;690332;28;4307;-62
2023/01/30 01:37:17;;;;;;;27.20;16.03;;;;;;;2.58;100.00;101023.16;690871;28;1305;-61
2023/01/30 01:37:37;;;;;;;25.88;15.60;;;;;;;2.57;100.00;101011.06;691012;28;1165;-60
2023/01/30 01:37:58;;;;;;;26.33;15.40;;;;;;;2.63;100.00;101011.28;690909;28;1255;-61
2023/01/30 01:38:18;;;;;;;25.43;15.03;;;;;;;2.61;100.00;101012.91;694721;28;1254;-61
2023/01/30 01:38:41;;;;;;;30.57;16.20;;;;;;;2.59;100.00;101018.84;695005;28;1111;-61
2023/01/30 01:39:03;;;;;;;28.48;16.58;;;;;;;2.56;100.00;101014.47;691155;28;1346;-61
2023/01/30 01:39:23;;;;;;;27.60;16.70;;;;;;;2.55;100.00;101012.72;692213;28;1227;-62
2023/01/30 01:41:02;;;;;;;27.55;15.90;;;;;;;2.62;100.00;101016.41;692859;28;1330;-60
2023/01/30 01:41:22;;;;;;;27.33;15.97;;;;;;;2.71;100.00;101020.16;691607;28;1339;-60
2023/01/30 01:41:43;;;;;;;27.90;16.27;;;;;;;2.67;100.00;101018.31;691611;28;1227;-61
2023/01/30 01:42:03;;;;;;;27.73;16.53;;;;;;;2.68;100.00;101019.16;688796;28;1171;-60
2023/01/30 01:42:29;;;;;;;27.08;16.15;;;;;;;2.63;100.00;101019.03;689336;28;1235;-60
2023/01/30 01:42:49;;;;;;;28.77;16.20;;;;;;;2.58;100.00;101027.44;689997;28;4497;-61
2023/01/30 01:43:18;;;;;;;27.93;16.50;;;;;;;2.54;100.00;101023.88;691634;28;1465;-62
2023/01/30 01:44:03;;;;;;;25.95;16.02;;;;;;;2.53;100.00;101029.84;694460;28;1091;-62
2023/01/30 01:44:23;;;;;;;26.70;15.95;;;;;;;2.62;100.00;101030.16;696182;28;1226;-64
2023/01/30 01:45:01;;;;;;;26.73;15.73;;;;;;;2.62;100.00;101027.59;695629;28;1135;-60